Lynncamp, West Virginia
Current Conditions -  °F | °C
As of 4:53 AM on Saturday 29 Nov 2014 (Local Time) from KPKB Reporting Station
Broken Clouds Broken Clouds  
Wind Chill: 31°   Ceiling: 7000
Heat Index: 31°   Visibility: 10mi
Dew Point: 19°   Wind: 0mph
Humidity: 61%   Direction: NA
Pressure: 30.16"   Gusts: NA
Location:  38.9676°N, 81.429°W
Report Text: KPKB 290953Z AUTO 00000KT 10SM BKN070 M01/M07 A3016 RMK AO2 SLP221 T10061072
Loading
Personal Weather Stations






























Interactive Weather Map New forecast layout! Learn more

10-Day Weather Forecast

Advertisements
Track Severe Weather on mobile